createdAt,value
2017-12-04T00:02:30.963Z,4.95
2017-12-04T00:05:06.503Z,5.18
2017-12-04T00:07:42.650Z,6.22
2017-12-04T00:10:18.687Z,8.30
2017-12-04T00:12:55.640Z,7.12
2017-12-04T00:15:38.226Z,4.47
2017-12-04T00:18:14.282Z,4.47
2017-12-04T00:20:51.975Z,5.62
2017-12-04T00:23:35.080Z,5.80
2017-12-04T00:26:12.119Z,4.45
2017-12-04T00:28:50.378Z,4.45
2017-12-04T00:32:53.996Z,5.95
2017-12-04T00:35:34.261Z,8.48
2017-12-04T00:38:10.093Z,12.20
2017-12-04T00:40:46.069Z,11.48
2017-12-04T00:43:26.131Z,19.20
2017-12-04T00:48:54.017Z,10.32
2017-12-04T00:51:32.748Z,10.23
2017-12-04T01:35:00.265Z,13.40
2017-12-04T01:37:39.704Z,13.98
2017-12-04T01:41:37.855Z,9.25
2017-12-04T01:46:09.614Z,13.30
2017-12-04T01:48:59.114Z,9.82
2017-12-04T01:51:39.359Z,8.70
2017-12-04T01:54:17.080Z,7.40
2017-12-04T01:59:54.201Z,6.72
2017-12-04T02:02:30.650Z,5.20
2017-12-04T02:05:10.803Z,5.95
2017-12-04T02:07:56.281Z,9.10
2017-12-04T02:10:42.940Z,7.30
2017-12-04T02:13:20.917Z,6.20
2017-12-04T02:15:57.990Z,9.38
2017-12-04T02:18:37.261Z,9.05
2017-12-04T02:21:16.858Z,5.95
2017-12-04T02:23:57.874Z,7.00
2017-12-04T02:26:41.773Z,10.10
2017-12-04T02:29:21.363Z,8.85
2017-12-04T02:31:58.897Z,9.10
2017-12-04T02:34:40.682Z,10.10
2017-12-04T02:37:19.902Z,8.25
